createdAt,value
2022-09-03T00:01:07.756Z,46.27
2022-09-03T00:03:41.521Z,46.40
2022-09-03T00:06:17.524Z,46.43
2022-09-03T00:08:49.447Z,46.43
2022-09-03T00:11:20.843Z,46.49
2022-09-03T00:13:56.531Z,48.43
2022-09-03T00:16:27.756Z,46.82
2022-09-03T00:19:00.703Z,46.83
2022-09-03T00:21:39.042Z,46.74
2022-09-03T00:24:14.033Z,46.93
2022-09-03T00:26:46.268Z,46.92
2022-09-03T00:29:17.653Z,46.89
2022-09-03T00:31:49.061Z,47.15
2022-09-03T00:34:23.105Z,47.21
2022-09-03T00:36:50.808Z,47.31
2022-09-03T00:39:21.325Z,47.33
2022-09-03T00:42:07.833Z,47.36
2022-09-03T00:44:48.274Z,47.62
2022-09-03T00:47:25.594Z,47.86
2022-09-03T00:50:04.154Z,48.02
2022-09-03T00:52:46.029Z,48.27
2022-09-03T00:55:23.426Z,48.06
2022-09-03T00:58:04.130Z,48.70
2022-09-03T01:00:31.745Z,48.30
2022-09-03T01:03:08.656Z,48.37
2022-09-03T01:05:44.296Z,48.81
2022-09-03T01:08:32.213Z,48.43
2022-09-03T01:11:10.541Z,48.58
2022-09-03T01:13:44.718Z,48.74
2022-09-03T01:16:22.315Z,48.72
2022-09-03T01:18:55.871Z,48.94
2022-09-03T01:21:55.312Z,48.93
2022-09-03T01:24:36.388Z,48.88
2022-09-03T01:27:20.608Z,49.52
2022-09-03T01:29:58.397Z,49.45
2022-09-03T01:32:34.495Z,49.10
2022-09-03T01:35:09.851Z,49.32
2022-09-03T01:37:47.787Z,49.23
2022-09-03T01:40:21.015Z,49.79
2022-09-03T01:43:00.189Z,49.89
2022-09-03T01:45:51.233Z,49.48
2022-09-03T01:48:33.718Z,49.33
2022-09-03T01:51:11.106Z,49.51
2022-09-03T01:54:21.719Z,49.86
2022-09-03T01:57:12.867Z,49.99
2022-09-03T02:00:02.656Z,50.35
2022-09-03T02:02:32.699Z,50.16
2022-09-03T02:05:02.758Z,50.44
2022-09-03T02:07:34.820Z,50.51
2022-09-03T02:10:04.190Z,50.50
2022-09-03T02:12:34.927Z,50.58
2022-09-03T02:15:07.101Z,50.71
2022-09-03T02:17:37.302Z,51.03
2022-09-03T02:20:10.228Z,51.16
2022-09-03T02:22:37.870Z,51.12
2022-09-03T02:25:06.180Z,51.08
2022-09-03T02:27:33.818Z,51.12
2022-09-03T02:30:01.472Z,51.39
2022-09-03T02:32:29.251Z,51.36
2022-09-03T02:34:58.841Z,51.91
2022-09-03T02:37:26.919Z,51.76
2022-09-03T02:39:54.574Z,51.19
2022-09-03T02:42:22.317Z,51.16
2022-09-03T02:44:53.624Z,51.39
2022-09-03T02:47:21.846Z,51.23
2022-09-03T02:49:49.670Z,51.21
2022-09-03T02:52:18.655Z,52.59
2022-09-03T02:54:46.234Z,51.21
2022-09-03T02:57:16.248Z,52.14
2022-09-03T02:59:47.613Z,51.39
2022-09-03T03:02:15.397Z,52.05
2022-09-03T03:04:43.096Z,52.77
2022-09-03T03:07:10.707Z,51.65
2022-09-03T03:09:39.757Z,51.77
2022-09-03T03:12:08.791Z,51.37
2022-09-03T03:14:37.511Z,51.29
2022-09-03T03:17:06.030Z,51.12
2022-09-03T03:19:33.707Z,51.42
2022-09-03T03:22:01.245Z,51.27
2022-09-03T03:24:28.740Z,51.29
2022-09-03T03:26:59.198Z,51.44
2022-09-03T03:29:27.416Z,51.35
2022-09-03T03:31:55.000Z,51.54
2022-09-03T03:34:22.806Z,51.57
2022-09-03T03:36:50.583Z,51.69
2022-09-03T03:39:18.290Z,51.79
2022-09-03T03:41:45.921Z,51.97
2022-09-03T03:44:15.510Z,51.97
2022-09-03T03:46:43.163Z,51.93
2022-09-03T03:49:11.121Z,52.21
2022-09-03T03:51:40.695Z,52.21
2022-09-03T03:54:08.303Z,52.38
2022-09-03T03:56:36.494Z,52.34
2022-09-03T03:59:05.623Z,52.74
2022-09-03T04:01:34.611Z,52.67
2022-09-03T04:04:02.239Z,52.69
2022-09-03T04:06:30.028Z,52.69
2022-09-03T04:08:57.609Z,52.63
2022-09-03T04:11:26.002Z,52.69
2022-09-03T04:13:54.504Z,52.80
2022-09-03T04:16:23.798Z,52.98
2022-09-03T04:18:54.142Z,53.41
2022-09-03T04:21:23.934Z,53.78
2022-09-03T04:23:52.857Z,53.88
2022-09-03T04:26:22.128Z,53.52
2022-09-03T04:28:50.131Z,53.75
2022-09-03T04:31:19.965Z,54.71
2022-09-03T04:33:47.901Z,53.17
2022-09-03T04:36:18.829Z,53.73
2022-09-03T04:38:48.026Z,53.01
2022-09-03T04:41:17.780Z,53.23
2022-09-03T04:43:46.108Z,54.02
2022-09-03T04:46:20.210Z,55.26
2022-09-03T04:48:49.896Z,53.40
2022-09-03T04:51:21.061Z,53.34
2022-09-03T04:53:50.039Z,53.31
2022-09-03T04:56:19.597Z,53.43
2022-09-03T04:58:50.997Z,53.94
2022-09-03T05:01:20.618Z,53.29
2022-09-03T05:03:48.667Z,53.26
2022-09-03T05:06:17.194Z,53.46
2022-09-03T05:08:48.933Z,53.64
2022-09-03T05:11:18.808Z,53.42
2022-09-03T05:13:49.598Z,53.53
2022-09-03T05:16:18.993Z,53.37
2022-09-03T05:18:47.777Z,53.39
2022-09-03T05:21:16.973Z,53.66
2022-09-03T05:23:47.702Z,54.11
2022-09-03T05:26:17.429Z,53.43
2022-09-03T05:28:46.212Z,53.70
2022-09-03T05:31:15.715Z,53.45
2022-09-03T05:33:45.426Z,53.83
2022-09-03T05:36:14.592Z,54.06
2022-09-03T05:38:42.110Z,54.04
2022-09-03T05:41:13.000Z,54.25
2022-09-03T05:43:41.187Z,54.04
2022-09-03T05:46:10.286Z,54.13
2022-09-03T05:48:39.643Z,54.51
2022-09-03T05:51:09.339Z,54.70
2022-09-03T05:53:38.812Z,54.72
2022-09-03T05:56:10.858Z,54.76
2022-09-03T05:58:43.544Z,55.06
2022-09-03T06:01:13.132Z,54.74
2022-09-03T06:03:40.971Z,54.76
2022-09-03T06:06:09.087Z,54.94
2022-09-03T06:08:38.626Z,55.20
2022-09-03T06:11:07.007Z,55.38
2022-09-03T06:13:35.745Z,55.19
2022-09-03T06:16:07.143Z,55.68
2022-09-03T06:18:34.835Z,55.61
2022-09-03T06:21:04.151Z,56.01
2022-09-03T06:23:33.323Z,55.84
2022-09-03T06:26:05.277Z,56.20
2022-09-03T06:28:34.365Z,56.24
2022-09-03T06:31:03.029Z,56.33
2022-09-03T06:33:33.407Z,56.30
2022-09-03T06:36:04.614Z,56.24
2022-09-03T06:38:37.227Z,56.01
2022-09-03T06:41:07.692Z,56.16
2022-09-03T06:43:37.061Z,56.49
2022-09-03T06:46:06.746Z,56.43
2022-09-03T06:48:37.254Z,56.35
2022-09-03T06:51:07.206Z,56.19
2022-09-03T06:53:37.014Z,56.45
2022-09-03T06:56:07.638Z,56.58
2022-09-03T06:58:38.031Z,56.58
2022-09-03T07:01:07.807Z,56.83
2022-09-03T07:03:37.717Z,56.87
2022-09-03T07:06:07.186Z,57.23
2022-09-03T07:08:35.581Z,58.96
2022-09-03T07:11:06.124Z,60.06
2022-09-03T07:13:34.501Z,60.64
2022-09-03T07:16:03.211Z,61.42
2022-09-03T07:18:31.047Z,62.17
2022-09-03T07:21:01.587Z,62.68
2022-09-03T07:23:30.296Z,62.68
2022-09-03T07:25:59.169Z,62.99
2022-09-03T07:28:28.281Z,63.64
2022-09-03T07:31:01.532Z,63.68
2022-09-03T07:33:33.663Z,64.08
2022-09-03T07:36:08.335Z,64.78
2022-09-03T07:38:37.018Z,64.46
2022-09-03T07:41:06.736Z,65.03
2022-09-03T07:43:36.485Z,65.03
2022-09-03T07:46:04.429Z,64.58
2022-09-03T07:48:36.709Z,64.76
2022-09-03T07:51:06.537Z,65.07
2022-09-03T07:53:34.981Z,64.76
2022-09-03T07:56:03.663Z,64.86
2022-09-03T07:58:31.822Z,64.37
2022-09-03T08:01:00.362Z,64.34
2022-09-03T08:03:28.602Z,63.54
2022-09-03T08:06:01.680Z,63.60
2022-09-03T08:08:35.515Z,62.90
2022-09-03T08:11:11.136Z,61.93
2022-09-03T08:13:40.838Z,60.81
2022-09-03T08:16:09.614Z,60.12
2022-09-03T08:18:39.091Z,59.34
2022-09-03T08:21:08.492Z,59.05
2022-09-03T08:23:39.653Z,58.97
2022-09-03T08:26:07.774Z,58.21
2022-09-03T08:28:36.196Z,57.21
2022-09-03T08:31:08.408Z,56.47
2022-09-03T08:33:39.096Z,56.40
2022-09-03T08:36:08.660Z,55.42
2022-09-03T08:38:38.261Z,55.75
2022-09-03T08:41:11.518Z,54.65
2022-09-03T08:43:56.974Z,54.85
2022-09-03T08:46:33.137Z,55.45
2022-09-03T08:49:01.566Z,55.40
2022-09-03T08:51:29.113Z,55.56
2022-09-03T08:53:58.865Z,55.75
2022-09-03T08:56:31.785Z,55.30
2022-09-03T08:59:01.817Z,55.56
2022-09-03T09:01:42.783Z,55.57
2022-09-03T09:04:25.367Z,55.46
2022-09-03T09:06:57.181Z,55.44
2022-09-03T09:09:31.922Z,54.75
2022-09-03T09:12:11.956Z,54.07
2022-09-03T09:14:53.194Z,54.64
2022-09-03T09:17:32.753Z,54.00
2022-09-03T09:20:07.884Z,53.93
2022-09-03T09:22:39.549Z,53.90
2022-09-03T09:25:14.325Z,53.85
2022-09-03T09:27:51.807Z,54.09
2022-09-03T09:30:20.541Z,53.55
2022-09-03T09:32:48.312Z,52.82
2022-09-03T09:35:18.045Z,52.66
2022-09-03T09:37:50.962Z,52.81
2022-09-03T09:40:35.668Z,53.04
2022-09-03T09:43:14.089Z,54.24
2022-09-03T09:45:43.894Z,53.56
2022-09-03T09:48:19.987Z,53.47
2022-09-03T09:50:47.687Z,54.76
2022-09-03T09:53:18.561Z,53.42
2022-09-03T09:55:51.537Z,54.10
2022-09-03T09:58:23.598Z,54.06
2022-09-03T10:01:00.148Z,53.99
2022-09-03T10:03:29.948Z,54.12
2022-09-03T10:06:26.715Z,53.68
2022-09-03T10:09:06.309Z,53.28
2022-09-03T10:11:38.627Z,53.58
2022-09-03T10:14:14.972Z,52.69
2022-09-03T10:16:48.964Z,52.66
2022-09-03T10:19:21.940Z,52.72
2022-09-03T10:21:58.422Z,51.50
2022-09-03T10:24:48.712Z,51.37
2022-09-03T10:27:18.697Z,49.79
2022-09-03T10:29:47.746Z,49.09
2022-09-03T10:32:29.102Z,48.01
2022-09-03T10:35:20.541Z,49.07
2022-09-03T10:37:56.537Z,48.58
2022-09-03T10:40:33.259Z,48.81
2022-09-03T10:43:17.086Z,48.21
2022-09-03T10:45:57.045Z,47.24
2022-09-03T10:48:51.732Z,46.54
2022-09-03T10:51:25.605Z,45.58
2022-09-03T10:54:11.828Z,45.02
2022-09-03T10:56:47.418Z,44.95
2022-09-03T10:59:33.926Z,44.98
2022-09-03T11:02:23.110Z,44.34
2022-09-03T11:04:57.820Z,44.98
2022-09-03T11:07:31.349Z,44.32
2022-09-03T11:10:09.040Z,43.08
2022-09-03T11:12:43.896Z,43.56
2022-09-03T11:15:17.327Z,43.23
2022-09-03T11:17:51.852Z,43.62
2022-09-03T11:20:25.246Z,43.15
2022-09-03T11:22:56.498Z,43.14
2022-09-03T11:25:31.927Z,42.32
2022-09-03T11:28:12.593Z,42.11
2022-09-03T11:30:54.815Z,41.65
2022-09-03T11:33:25.792Z,42.86
2022-09-03T11:36:01.053Z,44.77
2022-09-03T11:38:32.310Z,42.84
2022-09-03T11:41:13.533Z,42.87
2022-09-03T11:43:42.661Z,42.42
2022-09-03T11:46:14.292Z,42.26
2022-09-03T11:48:46.186Z,42.50
2022-09-03T11:51:30.887Z,42.53
2022-09-03T11:54:00.832Z,42.04
2022-09-03T11:56:57.846Z,42.47
2022-09-03T11:59:27.519Z,42.94
2022-09-03T12:02:01.875Z,42.40
2022-09-03T12:04:40.301Z,42.70
2022-09-03T12:07:26.443Z,42.28
2022-09-03T12:10:13.482Z,42.26
2022-09-03T12:13:16.827Z,42.72
2022-09-03T12:16:08.623Z,42.84
2022-09-03T12:18:38.759Z,42.82
2022-09-03T12:21:10.923Z,43.49
2022-09-03T12:23:44.731Z,44.11
2022-09-03T12:26:16.779Z,44.09
2022-09-03T12:28:46.543Z,44.16
2022-09-03T12:31:25.635Z,44.03
2022-09-03T12:33:56.058Z,44.26
2022-09-03T12:36:27.413Z,44.43
2022-09-03T12:39:12.675Z,45.04
2022-09-03T12:41:57.271Z,45.61
2022-09-03T12:44:30.217Z,45.68
2022-09-03T12:50:07.360Z,46.00
2022-09-03T12:52:40.090Z,46.05
2022-09-03T12:55:27.492Z,46.43
2022-09-03T12:58:04.142Z,46.57
2022-09-03T13:00:34.994Z,47.01
2022-09-03T13:03:08.431Z,47.45
2022-09-03T13:05:43.164Z,48.62
2022-09-03T13:08:20.033Z,50.85
2022-09-03T13:10:53.434Z,51.00
2022-09-03T13:13:25.189Z,51.72
2022-09-03T13:16:27.974Z,49.51
2022-09-03T13:19:02.395Z,49.78
2022-09-03T13:21:38.532Z,49.29
2022-09-03T13:24:35.402Z,55.40
2022-09-03T13:27:33.672Z,54.15
2022-09-03T13:30:12.234Z,54.40
2022-09-03T13:32:57.463Z,54.27
2022-09-03T13:35:32.510Z,56.05
2022-09-03T13:38:10.201Z,56.50
2022-09-03T13:40:47.947Z,57.78
2022-09-03T13:43:26.068Z,58.24
2022-09-03T13:45:58.652Z,59.18
2022-09-03T13:48:50.420Z,59.06
2022-09-03T13:51:23.619Z,59.07
2022-09-03T13:54:04.535Z,59.36
2022-09-03T13:56:45.591Z,59.31
2022-09-03T13:59:20.980Z,61.58
2022-09-03T14:02:08.354Z,60.76
2022-09-03T14:04:50.222Z,61.60
2022-09-03T14:07:24.391Z,61.60
2022-09-03T14:10:02.860Z,61.07
2022-09-03T14:12:44.251Z,62.31
2022-09-03T14:15:19.664Z,63.29
2022-09-03T14:17:53.819Z,64.12
2022-09-03T14:20:24.691Z,63.27
2022-09-03T14:22:57.437Z,63.87
2022-09-03T14:25:27.081Z,64.88
2022-09-03T14:27:57.209Z,64.05
2022-09-03T14:30:40.537Z,65.78
2022-09-03T14:33:20.463Z,64.88
2022-09-03T14:36:03.769Z,65.63
2022-09-03T14:39:13.744Z,65.24
2022-09-03T14:42:16.335Z,65.74
2022-09-03T14:45:03.096Z,65.99
2022-09-03T14:47:44.507Z,66.21
2022-09-03T14:50:29.250Z,66.67
2022-09-03T14:53:14.913Z,67.11
2022-09-03T14:56:11.813Z,67.33
2022-09-03T14:59:00.793Z,67.34
2022-09-03T15:01:38.847Z,67.67
2022-09-03T15:04:47.857Z,68.12
2022-09-03T15:07:33.228Z,68.64
2022-09-03T15:10:08.444Z,68.84
2022-09-03T15:12:40.147Z,69.16
2022-09-03T15:15:14.165Z,70.45
2022-09-03T15:17:52.095Z,69.38
2022-09-03T15:20:31.275Z,69.23
2022-09-03T15:23:21.725Z,68.31
2022-09-03T15:26:11.036Z,68.22
2022-09-03T15:28:49.516Z,68.74
2022-09-03T15:31:24.779Z,68.41
2022-09-03T15:34:02.136Z,68.65
2022-09-03T15:36:37.196Z,68.23
2022-09-03T15:39:09.673Z,68.36
2022-09-03T15:41:45.543Z,69.32
2022-09-03T15:44:19.500Z,69.54
2022-09-03T15:46:56.702Z,70.22
2022-09-03T15:49:52.556Z,69.90
2022-09-03T15:52:31.647Z,71.27
2022-09-03T15:55:07.526Z,70.13
2022-09-03T15:57:43.838Z,69.60
2022-09-03T16:00:14.738Z,70.25
2022-09-03T16:02:55.570Z,69.10
2022-09-03T16:05:39.313Z,68.88
2022-09-03T16:08:13.665Z,69.54
2022-09-03T16:10:51.021Z,69.94
2022-09-03T16:13:31.913Z,70.26
2022-09-03T16:16:03.312Z,70.74
2022-09-03T16:18:35.696Z,71.70
2022-09-03T16:21:08.144Z,70.61
2022-09-03T16:23:42.163Z,70.72
2022-09-03T16:26:14.797Z,72.16
2022-09-03T16:28:47.320Z,70.31
2022-09-03T16:31:24.132Z,70.67
2022-09-03T16:34:03.308Z,70.80
2022-09-03T16:36:44.520Z,71.16
2022-09-03T16:39:25.637Z,71.22
2022-09-03T16:42:01.732Z,71.91
2022-09-03T16:44:45.341Z,72.00
2022-09-03T16:47:23.050Z,71.83
2022-09-03T16:50:05.441Z,71.80
2022-09-03T16:52:42.916Z,71.74
2022-09-03T16:55:22.169Z,72.16
2022-09-03T16:58:01.657Z,72.38
2022-09-03T17:00:50.243Z,72.06
2022-09-03T17:03:42.444Z,72.41
2022-09-03T17:06:32.262Z,72.86
2022-09-03T17:09:16.657Z,73.33
2022-09-03T17:11:59.141Z,73.64
2022-09-03T17:14:48.530Z,74.14
2022-09-03T17:17:30.184Z,73.88
2022-09-03T17:20:06.520Z,74.04
2022-09-03T17:22:46.084Z,73.99
2022-09-03T17:25:27.556Z,74.19
2022-09-03T17:28:05.222Z,74.33
2022-09-03T17:30:43.409Z,74.11
2022-09-03T17:33:35.907Z,74.43
2022-09-03T17:36:09.911Z,74.26
2022-09-03T17:49:30.483Z,75.31
2022-09-03T17:52:04.667Z,75.31
2022-09-03T17:54:42.104Z,75.60
2022-09-03T17:57:19.590Z,75.62
2022-09-03T17:59:55.239Z,75.75
2022-09-03T18:02:32.977Z,75.31
2022-09-03T18:05:07.812Z,74.90
2022-09-03T18:07:48.400Z,74.72
2022-09-03T18:10:28.440Z,74.23
2022-09-03T18:13:06.066Z,74.16
2022-09-03T18:15:38.850Z,73.97
2022-09-03T18:18:11.854Z,73.91
2022-09-03T18:21:22.373Z,73.91
2022-09-03T18:24:15.690Z,73.57
2022-09-03T18:27:07.862Z,73.75
2022-09-03T18:30:04.382Z,73.73
2022-09-03T18:32:49.315Z,73.26
2022-09-03T18:35:34.816Z,73.04
2022-09-03T18:38:23.483Z,73.46
2022-09-03T18:41:13.488Z,73.46
2022-09-03T18:44:07.977Z,73.66
2022-09-03T18:50:19.879Z,74.00
2022-09-03T18:53:13.252Z,73.79
2022-09-03T18:56:12.433Z,73.90
2022-09-03T18:59:09.963Z,73.77
2022-09-03T19:01:57.754Z,73.61
2022-09-03T19:04:55.453Z,74.34
2022-09-03T19:07:48.475Z,74.21
2022-09-03T19:10:38.525Z,74.15
2022-09-03T19:13:43.662Z,74.26
2022-09-03T19:16:32.620Z,74.02
2022-09-03T19:19:39.631Z,74.59
2022-09-03T19:22:27.622Z,74.45
2022-09-03T19:25:20.565Z,74.58
2022-09-03T19:28:21.529Z,74.50
2022-09-03T19:31:19.821Z,74.56
2022-09-03T19:34:12.464Z,74.38
2022-09-03T19:37:02.773Z,74.41
2022-09-03T19:40:02.831Z,74.56
2022-09-03T19:43:02.053Z,74.73
2022-09-03T19:45:59.955Z,75.17
2022-09-03T19:48:59.942Z,75.23
2022-09-03T19:51:51.012Z,75.16
2022-09-03T19:54:41.535Z,75.60
2022-09-03T19:57:30.062Z,75.65
2022-09-03T20:00:16.892Z,75.94
2022-09-03T20:03:07.471Z,75.95
2022-09-03T20:05:56.162Z,76.17
2022-09-03T20:08:43.571Z,75.99
2022-09-03T20:11:17.805Z,75.98
2022-09-03T20:14:03.122Z,76.12
2022-09-03T20:16:35.927Z,76.63
2022-09-03T20:19:13.002Z,76.34
2022-09-03T20:21:49.371Z,76.15
2022-09-03T20:24:28.458Z,76.15
2022-09-03T20:27:05.028Z,76.22
2022-09-03T20:29:49.218Z,76.46
2022-09-03T20:32:30.096Z,76.93
2022-09-03T20:35:06.906Z,76.96
2022-09-03T20:37:42.576Z,76.96
2022-09-03T20:40:19.331Z,77.04
2022-09-03T20:43:07.550Z,77.00
2022-09-03T20:45:53.713Z,77.00
2022-09-03T20:48:25.270Z,77.10
2022-09-03T20:51:01.599Z,77.38
2022-09-03T20:54:02.181Z,77.80
2022-09-03T20:56:38.735Z,77.71
2022-09-03T20:59:16.787Z,77.89
2022-09-03T21:01:56.295Z,79.30
2022-09-03T21:04:40.375Z,78.39
2022-09-03T21:07:18.559Z,79.17
2022-09-03T21:09:57.003Z,79.30
2022-09-03T21:12:33.979Z,79.69
2022-09-03T21:15:11.745Z,78.56
2022-09-03T21:17:51.560Z,78.94
2022-09-03T21:20:29.774Z,78.22
2022-09-03T21:23:13.293Z,77.71
2022-09-03T21:25:43.940Z,77.79
2022-09-03T21:28:17.615Z,78.12
2022-09-03T21:30:52.384Z,77.79
2022-09-03T21:33:24.538Z,77.52
2022-09-03T21:35:55.446Z,77.50
2022-09-03T21:38:26.584Z,77.46
2022-09-03T21:40:59.960Z,77.75
2022-09-03T21:43:34.556Z,77.81
2022-09-03T21:46:07.505Z,77.67
2022-09-03T21:48:39.120Z,77.69
2022-09-03T21:51:14.522Z,77.89
2022-09-03T21:53:47.320Z,77.63
2022-09-03T21:56:45.291Z,77.87
2022-09-03T21:59:28.466Z,77.50
2022-09-03T22:02:04.780Z,77.46
2022-09-03T22:04:32.795Z,77.33
2022-09-03T22:07:11.043Z,77.65
2022-09-03T22:09:46.472Z,77.80
2022-09-03T22:12:21.343Z,77.73
2022-09-03T22:14:55.621Z,77.44
2022-09-03T22:17:30.545Z,77.58
2022-09-03T22:19:58.300Z,77.21
2022-09-03T22:22:35.204Z,77.31
2022-09-03T22:25:07.005Z,77.42
2022-09-03T22:27:44.642Z,77.52
2022-09-03T22:30:20.051Z,77.58
2022-09-03T22:33:01.225Z,77.38
2022-09-03T22:35:49.626Z,77.83
2022-09-03T22:38:49.053Z,78.09
2022-09-03T22:41:30.877Z,78.55
2022-09-03T22:44:05.981Z,78.04
2022-09-03T22:46:47.249Z,77.99
2022-09-03T22:49:32.770Z,78.43
2022-09-03T22:52:13.248Z,77.96
2022-09-03T22:54:54.417Z,77.94
2022-09-03T22:57:25.335Z,77.72
2022-09-03T23:00:00.657Z,77.89
2022-09-03T23:02:32.298Z,78.02
2022-09-03T23:05:06.194Z,78.52
2022-09-03T23:07:46.104Z,78.22
2022-09-03T23:10:22.605Z,78.14
2022-09-03T23:13:05.351Z,78.17
2022-09-03T23:15:35.201Z,78.07
2022-09-03T23:18:09.064Z,78.11
2022-09-03T23:20:40.124Z,77.65
2022-09-03T23:23:16.222Z,78.17
2022-09-03T23:25:48.754Z,77.99
2022-09-03T23:28:24.189Z,78.30
2022-09-03T23:30:51.848Z,78.01
2022-09-03T23:33:20.665Z,77.99
2022-09-03T23:35:54.719Z,77.89
2022-09-03T23:38:31.185Z,78.35
2022-09-03T23:41:03.254Z,78.28
2022-09-03T23:43:56.824Z,78.99
2022-09-03T23:46:29.097Z,78.76
2022-09-03T23:49:23.647Z,79.22
2022-09-03T23:52:08.789Z,78.73
2022-09-03T23:54:39.896Z,79.10
2022-09-03T23:57:24.526Z,79.22
